createdAt,value
2023-05-22T04:00:30.372Z,17.55
2023-05-22T04:05:30.485Z,17.65
2023-05-22T04:10:30.245Z,17.80
2023-05-22T04:15:37.283Z,17.79
2023-05-22T04:20:30.148Z,17.92
2023-05-22T04:25:30.111Z,18.06
2023-05-22T04:30:30.111Z,18.03
2023-05-22T04:35:29.995Z,18.28
2023-05-22T04:40:29.920Z,18.31
2023-05-22T04:45:29.880Z,18.30
2023-05-22T04:50:29.810Z,18.48
2023-05-22T04:55:29.788Z,18.64
2023-05-22T05:00:29.694Z,19.14
2023-05-22T05:05:29.674Z,19.35
2023-05-22T05:10:29.613Z,19.36
2023-05-22T05:15:29.619Z,19.54
2023-05-22T05:20:29.633Z,19.76
2023-05-22T05:25:29.459Z,19.44
2023-05-22T05:30:29.361Z,19.82
2023-05-22T05:35:29.376Z,19.96
2023-05-22T05:40:29.283Z,19.79
2023-05-22T05:45:29.213Z,19.86
2023-05-22T05:50:29.166Z,19.76
2023-05-22T05:55:29.122Z,19.61
2023-05-22T06:00:29.064Z,19.77
2023-05-22T06:05:29.076Z,20.15
2023-05-22T06:10:28.930Z,20.58
2023-05-22T06:15:28.951Z,20.35
2023-05-22T06:20:28.876Z,20.21
2023-05-22T06:25:28.902Z,20.30
2023-05-22T06:30:43.720Z,20.39
2023-05-22T06:35:29.727Z,20.17
2023-05-22T06:40:28.643Z,20.29
2023-05-22T06:45:28.570Z,20.72
2023-05-22T06:50:28.553Z,21.53
2023-05-22T06:55:28.654Z,22.15
2023-05-22T07:00:28.413Z,22.46
2023-05-22T07:05:28.397Z,21.60
2023-05-22T07:10:28.349Z,20.93
2023-05-22T07:15:28.290Z,20.67
2023-05-22T07:20:28.241Z,20.90
2023-05-22T07:25:28.144Z,20.93
2023-05-22T07:30:28.071Z,20.73
2023-05-22T07:35:28.083Z,20.38
2023-05-22T07:40:28.020Z,20.57
2023-05-22T07:45:27.938Z,20.30
2023-05-22T07:50:27.872Z,20.39
2023-05-22T07:55:27.864Z,20.51
2023-05-22T08:00:27.791Z,20.63
2023-05-22T08:05:27.725Z,20.67
2023-05-22T08:10:30.016Z,20.49
2023-05-22T08:15:28.751Z,20.53
2023-05-22T08:20:27.593Z,20.36
2023-05-22T08:25:27.492Z,20.14
2023-05-22T08:30:27.424Z,19.80
2023-05-22T08:35:27.557Z,19.80
2023-05-22T08:40:27.311Z,19.97
2023-05-22T08:45:27.270Z,19.69
2023-05-22T08:50:27.219Z,20.23
2023-05-22T08:55:27.341Z,20.43
2023-05-22T09:00:27.131Z,20.95
2023-05-22T09:05:27.079Z,20.42
2023-05-22T09:10:26.999Z,20.29
2023-05-22T09:15:27.111Z,20.35
2023-05-22T09:20:26.984Z,20.23
2023-05-22T09:25:26.861Z,20.15
2023-05-22T09:30:26.793Z,20.58
2023-05-22T09:35:26.981Z,21.19
2023-05-22T09:40:26.702Z,20.46
2023-05-22T09:45:26.629Z,21.22
2023-05-22T09:50:26.579Z,21.29
2023-05-22T09:55:26.530Z,21.18
2023-05-22T10:00:26.466Z,21.24
2023-05-22T10:05:26.778Z,20.99
2023-05-22T10:10:26.349Z,21.64
2023-05-22T10:15:33.503Z,21.58
2023-05-22T10:20:26.242Z,22.13
2023-05-22T10:25:26.219Z,23.36
2023-05-22T10:30:26.150Z,22.97
2023-05-22T10:35:26.228Z,22.66
2023-05-22T10:40:26.958Z,23.14
2023-05-22T10:45:26.033Z,23.67
2023-05-22T10:50:25.928Z,24.17
2023-05-22T10:55:25.992Z,23.17
2023-05-22T11:00:25.823Z,23.26
2023-05-22T11:05:25.834Z,23.19
2023-05-22T11:10:25.713Z,23.10
2023-05-22T11:15:25.819Z,23.55
2023-05-22T11:20:25.863Z,24.09
2023-05-22T11:25:25.567Z,24.02
2023-05-22T11:30:25.509Z,24.24
2023-05-22T11:35:25.579Z,23.51
2023-05-22T11:40:25.450Z,23.48
2023-05-22T11:45:25.381Z,23.38
2023-05-22T11:50:40.955Z,24.24
2023-05-22T11:55:26.426Z,24.87
2023-05-22T12:00:25.201Z,24.44
2023-05-22T12:05:25.147Z,24.33
2023-05-22T12:10:25.068Z,24.33
2023-05-22T12:15:25.140Z,24.45
2023-05-22T12:20:24.982Z,25.20
2023-05-22T12:25:25.011Z,25.23
2023-05-22T12:30:24.898Z,24.75
2023-05-22T12:35:24.964Z,25.41
2023-05-22T12:40:24.774Z,25.43
2023-05-22T12:45:24.709Z,25.02
2023-05-22T12:50:24.693Z,24.89
2023-05-22T12:55:24.710Z,25.43
2023-05-22T13:00:24.568Z,25.45
2023-05-22T13:05:24.666Z,26.21
2023-05-22T13:10:24.456Z,25.70
2023-05-22T13:15:24.605Z,25.67
2023-05-22T13:20:24.344Z,25.37
2023-05-22T13:25:24.282Z,25.99
2023-05-22T13:30:24.233Z,25.78
2023-05-22T13:35:24.339Z,25.88
2023-05-22T13:40:24.170Z,25.93
2023-05-22T13:45:24.089Z,25.84
2023-05-22T13:50:24.048Z,25.63
2023-05-22T13:55:24.099Z,26.21
2023-05-22T14:00:23.910Z,25.88
2023-05-22T14:05:23.860Z,25.82
2023-05-22T14:10:23.806Z,25.54
2023-05-22T14:15:24.323Z,26.43
2023-05-22T14:20:23.702Z,26.33
2023-05-22T14:25:23.644Z,26.00
2023-05-22T14:30:23.605Z,25.90
2023-05-22T14:35:23.673Z,25.78
2023-05-22T14:40:23.493Z,25.26
2023-05-22T14:45:23.446Z,25.18
2023-05-22T14:50:23.406Z,25.55
2023-05-22T14:55:23.353Z,25.82
2023-05-22T15:00:23.304Z,26.55
2023-05-22T15:05:23.419Z,25.75
2023-05-22T15:10:23.171Z,26.29
2023-05-22T15:15:23.163Z,26.05
2023-05-22T15:20:23.074Z,25.87
2023-05-22T15:25:23.039Z,26.00
2023-05-22T15:30:22.972Z,25.76
2023-05-22T15:35:23.024Z,26.05
2023-05-22T15:40:22.885Z,25.84
2023-05-22T15:45:22.937Z,25.80
2023-05-22T15:50:22.751Z,25.32
2023-05-22T15:55:22.822Z,25.37
2023-05-22T16:00:22.673Z,25.18
2023-05-22T16:05:22.621Z,25.32
2023-05-22T16:10:22.566Z,25.05
2023-05-22T16:15:29.634Z,25.02
2023-05-22T16:20:22.717Z,24.97
2023-05-22T16:25:22.375Z,25.26
2023-05-22T16:30:22.320Z,24.99
2023-05-22T16:35:22.396Z,25.29
2023-05-22T16:40:22.221Z,25.08
2023-05-22T16:45:22.162Z,24.69
2023-05-22T16:50:22.112Z,24.43
2023-05-22T16:55:22.178Z,24.18
2023-05-22T17:00:22.015Z,24.34
2023-05-22T17:05:21.966Z,24.67
2023-05-22T17:10:21.914Z,24.36
2023-05-22T17:15:21.973Z,24.24
2023-05-22T17:20:21.789Z,24.17
2023-05-22T17:25:21.756Z,24.04
2023-05-22T17:30:21.682Z,24.19
2023-05-22T17:35:21.759Z,23.73
2023-05-22T17:40:22.558Z,23.73
2023-05-22T17:45:22.531Z,24.03
2023-05-22T17:50:21.481Z,24.16
2023-05-22T17:55:21.542Z,23.64
2023-05-22T18:00:21.364Z,23.37
2023-05-22T18:05:21.312Z,22.76
2023-05-22T18:10:21.256Z,22.52
2023-05-22T18:15:21.327Z,22.30
2023-05-22T18:20:21.169Z,22.02
2023-05-22T18:25:21.098Z,21.90
2023-05-22T18:30:21.042Z,21.75
2023-05-22T18:35:21.112Z,21.69
2023-05-22T18:40:20.932Z,21.38
2023-05-22T18:45:20.882Z,21.33
2023-05-22T18:50:23.339Z,21.22
2023-05-22T18:55:20.893Z,21.00
2023-05-22T19:00:20.719Z,20.99
2023-05-22T19:05:20.667Z,20.83
2023-05-22T19:10:20.609Z,20.76
2023-05-22T19:15:20.684Z,20.59
2023-05-22T19:20:20.500Z,20.58
2023-05-22T19:25:20.439Z,20.61
2023-05-22T19:30:20.394Z,20.54
2023-05-22T19:35:20.458Z,20.58
2023-05-22T19:40:20.298Z,20.54
2023-05-22T19:45:20.214Z,20.52
2023-05-22T19:50:20.182Z,20.45
2023-05-22T19:55:20.250Z,20.58
2023-05-22T20:00:20.067Z,20.35
2023-05-22T20:05:20.035Z,20.11
2023-05-22T20:10:19.954Z,20.26
2023-05-22T20:15:20.023Z,19.94
2023-05-22T20:20:19.848Z,19.97
2023-05-22T20:25:19.792Z,19.85
2023-05-22T20:30:19.754Z,19.85
2023-05-22T20:35:19.804Z,19.77
2023-05-22T20:40:19.638Z,19.61
2023-05-22T20:45:19.609Z,19.52
2023-05-22T20:50:19.532Z,19.44
2023-05-22T20:55:19.602Z,19.39
2023-05-22T21:00:19.421Z,19.32
2023-05-22T21:05:19.378Z,19.22
2023-05-22T21:10:19.307Z,19.14
2023-05-22T21:15:19.385Z,19.03
2023-05-22T21:20:19.209Z,18.93
2023-05-22T21:25:19.152Z,18.89
2023-05-22T21:30:19.099Z,18.77
2023-05-22T21:35:19.166Z,18.56
2023-05-22T21:40:19.003Z,18.54
2023-05-22T21:45:18.954Z,18.52
2023-05-22T21:50:18.896Z,18.41
2023-05-22T21:55:18.949Z,18.22
2023-05-22T22:00:19.211Z,18.20
2023-05-22T22:05:18.712Z,18.18
2023-05-22T22:10:18.660Z,18.06
2023-05-22T22:15:18.740Z,18.10
2023-05-22T22:20:42.402Z,18.02
2023-05-22T22:25:19.612Z,17.86
2023-05-22T22:30:18.454Z,17.71
2023-05-22T22:35:18.517Z,17.67
2023-05-22T22:40:18.368Z,17.57
2023-05-22T22:45:18.312Z,17.64
2023-05-22T22:50:18.245Z,17.51
2023-05-22T22:55:18.318Z,17.44
2023-05-22T23:00:18.152Z,17.40
2023-05-22T23:05:18.086Z,17.30
2023-05-22T23:10:18.017Z,17.21
2023-05-22T23:15:18.086Z,17.24
2023-05-22T23:20:17.909Z,17.14
2023-05-22T23:25:17.866Z,17.24
